createdAt,value
2022-11-14T00:00:13.841Z,2.40
2022-11-14T00:01:13.873Z,3.28
2022-11-14T00:02:13.846Z,1.64
2022-11-14T00:03:13.896Z,1.56
2022-11-14T00:04:13.050Z,1.64
2022-11-14T00:05:12.903Z,0.32
2022-11-14T00:06:12.814Z,0.48
2022-11-14T00:07:13.844Z,0.20
2022-11-14T00:08:13.721Z,1.08
2022-11-14T00:09:13.677Z,0.00
2022-11-14T00:10:13.561Z,0.88
2022-11-14T00:11:13.535Z,2.12
2022-11-14T00:12:13.504Z,0.24
2022-11-14T00:13:13.363Z,0.44
2022-11-14T00:14:13.555Z,1.24
2022-11-14T00:15:13.380Z,1.44
2022-11-14T00:16:13.263Z,1.08
2022-11-14T00:17:13.268Z,0.04
2022-11-14T00:18:13.261Z,0.28
2022-11-14T00:19:13.268Z,1.92
2022-11-14T00:20:13.144Z,0.76
2022-11-14T00:21:13.082Z,0.12
2022-11-14T00:22:13.034Z,1.00
2022-11-14T00:23:12.934Z,0.72
2022-11-14T00:24:13.351Z,0.16
2022-11-14T00:25:13.280Z,0.32
2022-11-14T00:26:13.116Z,1.12
2022-11-14T00:27:13.212Z,1.72
2022-11-14T00:28:13.185Z,2.88
2022-11-14T00:29:13.377Z,3.32
2022-11-14T00:30:13.265Z,2.76
2022-11-14T00:31:13.475Z,2.24
2022-11-14T00:32:13.418Z,2.12
2022-11-14T00:33:19.855Z,2.52
2022-11-14T00:34:13.359Z,5.96
2022-11-14T00:35:13.410Z,5.88
2022-11-14T00:36:13.286Z,3.76
2022-11-14T00:37:13.232Z,2.52
2022-11-14T00:38:13.055Z,3.76
2022-11-14T00:39:13.025Z,2.92
2022-11-14T00:40:12.965Z,3.96
2022-11-14T00:41:13.056Z,2.68
2022-11-14T00:42:13.140Z,1.84
2022-11-14T00:43:13.162Z,1.40
2022-11-14T00:44:13.268Z,4.00
2022-11-14T00:45:13.298Z,1.48
2022-11-14T00:46:13.653Z,2.48
2022-11-14T00:47:13.602Z,1.48
2022-11-14T00:48:13.634Z,2.16
2022-11-14T00:49:13.482Z,0.40
2022-11-14T00:50:13.507Z,0.00
2022-11-14T00:51:18.775Z,0.24
2022-11-14T00:52:13.880Z,1.16
2022-11-14T00:53:13.847Z,0.60
2022-11-14T00:54:13.687Z,2.88
2022-11-14T00:55:13.951Z,5.84
2022-11-14T00:56:12.838Z,4.76
2022-11-14T00:57:13.752Z,5.48
2022-11-14T00:58:13.656Z,4.44
2022-11-14T00:59:13.565Z,5.44
2022-11-14T01:00:13.796Z,5.84
2022-11-14T01:01:13.945Z,2.60
2022-11-14T01:02:13.056Z,1.44
2022-11-14T01:03:13.380Z,1.72
2022-11-14T01:04:13.527Z,1.56
2022-11-14T01:05:13.590Z,2.16
2022-11-14T01:06:13.810Z,3.48
2022-11-14T01:07:14.094Z,3.52
2022-11-14T01:08:13.100Z,2.92
2022-11-14T01:09:13.333Z,2.64
2022-11-14T01:10:13.638Z,1.36
2022-11-14T01:11:13.745Z,0.80
2022-11-14T01:12:13.941Z,0.60
2022-11-14T01:13:13.063Z,1.08
2022-11-14T01:14:13.509Z,2.28
2022-11-14T01:15:13.753Z,1.80
2022-11-14T01:16:13.700Z,2.12
2022-11-14T01:17:13.715Z,3.96
2022-11-14T01:18:13.644Z,2.56
2022-11-14T01:19:13.760Z,3.64
2022-11-14T01:20:13.650Z,2.32
2022-11-14T01:21:13.698Z,2.40
2022-11-14T01:22:13.665Z,1.92
2022-11-14T01:23:13.503Z,2.80
2022-11-14T01:24:13.416Z,2.48
2022-11-14T01:25:13.333Z,1.92
2022-11-14T01:26:13.226Z,1.04
2022-11-14T01:27:13.150Z,0.92
2022-11-14T01:28:13.216Z,0.88
2022-11-14T01:29:13.415Z,0.96
2022-11-14T01:30:13.317Z,0.72
2022-11-14T01:31:13.671Z,1.32
2022-11-14T01:32:13.953Z,0.68
2022-11-14T01:33:12.917Z,0.32
2022-11-14T01:34:12.845Z,0.08
2022-11-14T01:35:13.735Z,0.00
2022-11-14T01:36:13.754Z,0.00
2022-11-14T01:37:13.692Z,0.00
2022-11-14T01:38:13.664Z,0.00
2022-11-14T01:39:14.069Z,0.00
2022-11-14T01:40:14.343Z,0.00
2022-11-14T01:41:13.513Z,0.00
2022-11-14T01:42:13.560Z,0.08
2022-11-14T01:43:13.492Z,0.00
2022-11-14T01:44:13.467Z,0.00
2022-11-14T01:45:13.736Z,0.00
2022-11-14T01:46:13.698Z,0.00
2022-11-14T01:47:13.645Z,0.00
2022-11-14T01:48:13.431Z,0.00
2022-11-14T01:49:13.527Z,0.00
2022-11-14T01:50:13.432Z,0.00
2022-11-14T01:51:13.379Z,0.00
2022-11-14T01:52:13.373Z,0.00
2022-11-14T01:53:13.468Z,0.00
2022-11-14T01:54:13.360Z,0.00
2022-11-14T01:55:13.247Z,0.00
2022-11-14T01:56:18.421Z,0.00
2022-11-14T01:57:13.676Z,0.00
2022-11-14T01:58:13.480Z,0.00
2022-11-14T01:59:13.310Z,0.00
2022-11-14T02:00:13.270Z,0.00
2022-11-14T02:01:13.214Z,0.00
2022-11-14T02:02:13.213Z,0.00
2022-11-14T02:03:13.134Z,0.00
2022-11-14T02:04:15.386Z,0.04
2022-11-14T02:05:13.452Z,0.52
2022-11-14T02:06:13.505Z,0.24
2022-11-14T02:07:14.360Z,0.08
2022-11-14T02:08:13.313Z,0.08
2022-11-14T02:09:13.548Z,1.24
2022-11-14T02:10:13.444Z,1.16
2022-11-14T02:11:13.366Z,1.64
2022-11-14T02:12:13.237Z,1.76
2022-11-14T02:13:13.520Z,0.00
2022-11-14T02:14:13.533Z,0.32
2022-11-14T02:15:13.465Z,0.76
2022-11-14T02:16:13.629Z,3.00
2022-11-14T02:17:29.166Z,3.24
2022-11-14T02:18:13.513Z,2.16
2022-11-14T02:19:13.608Z,0.88
2022-11-14T02:20:13.573Z,1.24
2022-11-14T02:21:13.496Z,2.20
2022-11-14T02:22:13.679Z,2.68
2022-11-14T02:23:13.864Z,0.44
2022-11-14T02:24:14.011Z,1.08
2022-11-14T02:25:13.061Z,1.40
2022-11-14T02:26:13.169Z,0.20
2022-11-14T02:27:13.094Z,1.68
2022-11-14T02:28:14.613Z,4.08
2022-11-14T02:29:13.824Z,3.60
2022-11-14T02:30:13.908Z,1.08
2022-11-14T02:31:13.081Z,1.88
2022-11-14T02:32:13.387Z,0.44
2022-11-14T02:33:13.344Z,0.00
2022-11-14T02:34:13.629Z,0.00
2022-11-14T02:35:13.610Z,0.08
2022-11-14T02:36:13.680Z,0.32
2022-11-14T02:37:13.599Z,0.00
2022-11-14T02:38:13.692Z,0.00
2022-11-14T02:39:13.761Z,0.00
2022-11-14T02:40:13.724Z,0.00
2022-11-14T02:41:13.750Z,0.00
2022-11-14T02:42:13.996Z,0.00
2022-11-14T02:43:13.093Z,0.00
2022-11-14T02:44:13.420Z,0.00
2022-11-14T02:45:13.552Z,0.00
2022-11-14T02:46:13.996Z,0.00
2022-11-14T02:47:13.383Z,0.00
2022-11-14T02:48:13.405Z,0.00
2022-11-14T02:49:14.188Z,0.00
2022-11-14T02:50:13.263Z,0.00
2022-11-14T02:51:13.216Z,0.00
2022-11-14T02:52:13.407Z,0.00
2022-11-14T02:53:13.335Z,0.00
2022-11-14T02:54:13.503Z,0.00
2022-11-14T02:55:13.592Z,0.00
2022-11-14T02:56:13.980Z,0.00
2022-11-14T02:57:12.880Z,0.00
2022-11-14T02:58:13.476Z,0.00
2022-11-14T02:59:14.087Z,1.20
2022-11-14T03:00:15.194Z,2.76
2022-11-14T03:01:20.664Z,1.52
2022-11-14T03:02:13.736Z,0.36
2022-11-14T03:03:13.721Z,0.00
2022-11-14T03:04:13.594Z,0.00
2022-11-14T03:05:13.683Z,0.00
2022-11-14T03:06:13.683Z,0.00
2022-11-14T03:07:13.630Z,0.00
2022-11-14T03:08:13.697Z,0.00
2022-11-14T03:09:13.747Z,0.12
2022-11-14T03:10:14.163Z,0.60
2022-11-14T03:11:13.511Z,0.00
2022-11-14T03:12:13.697Z,0.00
2022-11-14T03:13:13.682Z,0.00
2022-11-14T03:14:13.682Z,0.00
2022-11-14T03:15:13.545Z,0.00
2022-11-14T03:16:13.845Z,0.00
2022-11-14T03:17:13.740Z,0.00
2022-11-14T03:18:13.792Z,0.00
2022-11-14T03:19:14.055Z,0.00
2022-11-14T03:20:13.153Z,0.00
2022-11-14T03:21:13.435Z,0.00
2022-11-14T03:22:13.526Z,0.00
2022-11-14T03:23:13.429Z,0.00
2022-11-14T03:24:13.368Z,0.00
2022-11-14T03:25:13.332Z,0.00
2022-11-14T03:26:13.252Z,0.00
2022-11-14T03:27:13.876Z,0.00
2022-11-14T03:28:13.824Z,0.00
2022-11-14T03:29:14.501Z,0.00
2022-11-14T03:30:13.587Z,0.00
2022-11-14T03:31:13.591Z,0.16
2022-11-14T03:32:14.185Z,0.24
2022-11-14T03:33:13.062Z,0.04
2022-11-14T03:34:13.086Z,0.04
2022-11-14T03:35:13.209Z,0.84
2022-11-14T03:36:13.537Z,0.92
2022-11-14T03:37:13.468Z,0.56
2022-11-14T03:38:13.434Z,0.40
2022-11-14T03:39:13.427Z,0.72
2022-11-14T03:40:13.360Z,0.84
2022-11-14T03:41:13.661Z,0.32
2022-11-14T03:42:13.667Z,0.00
2022-11-14T03:43:13.848Z,0.00
2022-11-14T03:44:14.069Z,0.00
2022-11-14T03:45:13.135Z,0.00
2022-11-14T03:46:13.277Z,0.08
2022-11-14T03:47:13.460Z,0.40
2022-11-14T03:48:13.560Z,0.00
2022-11-14T03:49:13.808Z,0.00
2022-11-14T03:50:13.810Z,0.00
2022-11-14T03:51:13.767Z,0.00
2022-11-14T03:52:13.829Z,0.00
2022-11-14T03:53:13.849Z,0.00
2022-11-14T03:54:13.867Z,0.00
2022-11-14T03:55:13.801Z,0.00
2022-11-14T03:56:13.771Z,1.32
2022-11-14T03:57:13.761Z,1.04
2022-11-14T03:58:13.890Z,0.16
2022-11-14T03:59:13.809Z,1.32
2022-11-14T04:00:13.753Z,0.20
2022-11-14T04:01:13.686Z,1.88
2022-11-14T04:02:13.660Z,0.04
2022-11-14T04:03:13.579Z,2.20
2022-11-14T04:04:13.391Z,3.28
2022-11-14T04:05:13.647Z,0.80
2022-11-14T04:06:13.719Z,0.80
2022-11-14T04:07:14.436Z,0.04
2022-11-14T04:08:13.955Z,0.04
2022-11-14T04:09:12.874Z,0.84
2022-11-14T04:10:13.823Z,2.84
2022-11-14T04:11:13.811Z,2.96
2022-11-14T04:12:15.900Z,0.20
2022-11-14T04:13:14.762Z,0.00
2022-11-14T04:14:13.729Z,2.28
2022-11-14T04:15:13.695Z,4.16
2022-11-14T04:16:13.749Z,4.04
2022-11-14T04:17:13.902Z,3.24
2022-11-14T04:18:12.897Z,3.92
2022-11-14T04:19:12.791Z,1.64
2022-11-14T04:20:13.887Z,2.84
2022-11-14T04:21:13.027Z,0.08
2022-11-14T04:22:13.284Z,1.28
2022-11-14T04:23:13.374Z,0.52
2022-11-14T04:24:13.361Z,3.32
2022-11-14T04:25:13.283Z,7.48
2022-11-14T04:26:13.401Z,1.24
2022-11-14T04:27:13.546Z,2.52
2022-11-14T04:28:13.950Z,0.76
2022-11-14T04:29:12.952Z,0.00
2022-11-14T04:30:12.841Z,0.00
2022-11-14T04:31:13.667Z,0.00
2022-11-14T04:32:13.619Z,0.00
2022-11-14T04:33:13.526Z,0.00
2022-11-14T04:34:13.479Z,0.00
2022-11-14T04:35:13.850Z,0.00
2022-11-14T04:36:13.781Z,0.00
2022-11-14T04:37:13.648Z,0.00
2022-11-14T04:38:13.563Z,0.00
2022-11-14T04:39:13.516Z,0.00
2022-11-14T04:40:13.420Z,0.00
2022-11-14T04:41:13.638Z,0.00
2022-11-14T04:42:13.952Z,0.00
2022-11-14T04:43:13.068Z,0.00
2022-11-14T04:44:13.283Z,0.04
2022-11-14T04:45:13.310Z,1.24
2022-11-14T04:46:13.619Z,0.00
2022-11-14T04:47:13.616Z,0.00
2022-11-14T04:48:13.676Z,0.00
2022-11-14T04:49:13.692Z,0.00
2022-11-14T04:50:13.819Z,0.00
2022-11-14T04:51:13.785Z,0.00
2022-11-14T04:52:13.752Z,0.00
2022-11-14T04:53:13.673Z,0.00
2022-11-14T04:54:13.665Z,0.00
2022-11-14T04:55:13.590Z,0.00
2022-11-14T04:56:13.501Z,0.00
2022-11-14T04:57:13.900Z,0.00
2022-11-14T04:58:12.812Z,0.00
2022-11-14T04:59:16.981Z,0.96
2022-11-14T05:00:13.690Z,0.00
2022-11-14T05:01:14.293Z,0.00
2022-11-14T05:02:13.256Z,0.00
2022-11-14T05:03:13.197Z,0.00
2022-11-14T05:04:13.056Z,0.48
2022-11-14T05:05:13.261Z,0.28
2022-11-14T05:06:13.592Z,0.00
2022-11-14T05:07:13.930Z,0.00
2022-11-14T05:08:13.276Z,0.00
2022-11-14T05:09:13.328Z,0.00
2022-11-14T05:10:13.281Z,0.00
2022-11-14T05:11:13.225Z,0.16
2022-11-14T05:12:13.261Z,0.00
2022-11-14T05:13:13.291Z,0.00
2022-11-14T05:14:13.362Z,0.00
2022-11-14T05:15:18.356Z,0.00
2022-11-14T05:16:13.275Z,0.00
2022-11-14T05:17:13.512Z,0.00
2022-11-14T05:18:13.340Z,0.00
2022-11-14T05:19:13.228Z,0.00
2022-11-14T05:20:13.106Z,0.00
2022-11-14T05:21:13.030Z,0.00
2022-11-14T05:22:12.948Z,0.00
2022-11-14T05:23:12.844Z,0.00
2022-11-14T05:24:13.188Z,0.00
2022-11-14T05:25:13.238Z,0.00
2022-11-14T05:26:13.824Z,0.80
2022-11-14T05:27:18.802Z,0.00
2022-11-14T05:28:13.715Z,0.00
2022-11-14T05:29:13.711Z,0.00
2022-11-14T05:30:13.957Z,0.00
2022-11-14T05:31:13.702Z,1.49
2022-11-14T05:32:16.415Z,1.24
2022-11-14T05:33:13.898Z,0.00
2022-11-14T05:34:12.764Z,0.00
2022-11-14T05:35:13.941Z,0.00
2022-11-14T05:36:13.082Z,0.00
2022-11-14T05:37:13.360Z,0.20
2022-11-14T05:38:13.330Z,0.12
2022-11-14T05:39:13.430Z,0.08
2022-11-14T05:40:13.502Z,0.40
2022-11-14T05:41:14.088Z,0.00
2022-11-14T05:42:13.472Z,0.00
2022-11-14T05:43:13.514Z,0.00
2022-11-14T05:44:13.420Z,0.00
2022-11-14T05:45:13.286Z,0.00
2022-11-14T05:46:13.308Z,0.00
2022-11-14T05:47:13.220Z,0.00
2022-11-14T05:48:13.188Z,0.00
2022-11-14T05:49:15.857Z,0.00
2022-11-14T05:50:13.206Z,0.00
2022-11-14T05:51:13.277Z,0.00
2022-11-14T05:52:13.495Z,0.88
2022-11-14T05:53:13.486Z,0.48
2022-11-14T05:54:23.116Z,0.00
2022-11-14T05:55:13.219Z,0.66
2022-11-14T05:56:13.401Z,0.36
2022-11-14T05:57:13.504Z,0.80
2022-11-14T05:58:13.587Z,0.12
2022-11-14T05:59:13.390Z,0.00
2022-11-14T06:00:13.628Z,0.00
2022-11-14T06:01:13.909Z,0.00
2022-11-14T06:02:13.300Z,0.00
2022-11-14T06:03:13.598Z,0.00
2022-11-14T06:04:13.696Z,0.00
2022-11-14T06:05:13.875Z,0.00
2022-11-14T06:06:13.949Z,0.00
2022-11-14T06:07:17.468Z,0.00
2022-11-14T06:08:13.066Z,0.00
2022-11-14T06:09:28.023Z,0.00
2022-11-14T06:10:41.789Z,0.00
2022-11-14T06:11:13.836Z,0.08
2022-11-14T06:12:13.642Z,0.00
2022-11-14T06:13:13.889Z,0.00
2022-11-14T06:14:13.825Z,0.00
2022-11-14T06:15:13.796Z,0.00
2022-11-14T06:16:13.743Z,0.00
2022-11-14T06:17:13.949Z,0.00
2022-11-14T06:18:14.526Z,0.00
2022-11-14T06:19:14.398Z,0.00
2022-11-14T06:20:13.660Z,0.00
2022-11-14T06:21:13.847Z,0.00
2022-11-14T06:22:14.243Z,0.00
2022-11-14T06:23:13.169Z,0.00
2022-11-14T06:24:13.127Z,0.00
2022-11-14T06:25:14.494Z,0.00
2022-11-14T06:26:13.446Z,0.00
2022-11-14T06:27:13.898Z,0.00
2022-11-14T06:28:12.818Z,0.00
2022-11-14T06:29:13.728Z,0.00
2022-11-14T06:30:13.636Z,0.00
2022-11-14T06:31:13.631Z,0.00
2022-11-14T06:32:14.074Z,0.00
2022-11-14T06:33:12.995Z,0.00
2022-11-14T06:34:13.023Z,0.00
2022-11-14T06:35:12.980Z,0.00
2022-11-14T06:36:12.871Z,0.00
2022-11-14T06:37:33.723Z,0.00
2022-11-14T06:38:13.221Z,0.12
2022-11-14T06:39:13.243Z,0.00
2022-11-14T06:40:13.541Z,0.00
2022-11-14T06:41:13.668Z,0.00
2022-11-14T06:42:13.684Z,0.00
2022-11-14T06:43:13.725Z,0.00
2022-11-14T06:44:13.785Z,0.00
2022-11-14T06:45:13.897Z,0.00
2022-11-14T06:46:12.700Z,0.00
2022-11-14T06:47:13.852Z,0.00
2022-11-14T06:48:13.808Z,0.00
2022-11-14T06:49:13.972Z,0.00
2022-11-14T06:50:13.205Z,0.00
2022-11-14T06:51:13.374Z,0.00
2022-11-14T06:52:13.649Z,0.00
2022-11-14T06:53:14.006Z,0.00
2022-11-14T06:54:13.048Z,0.00
2022-11-14T06:55:13.324Z,0.00
2022-11-14T06:56:13.476Z,0.00
2022-11-14T06:57:13.336Z,0.00
2022-11-14T06:58:13.499Z,0.00
2022-11-14T06:59:13.431Z,0.00
2022-11-14T07:00:13.279Z,0.00
2022-11-14T07:01:13.300Z,0.00
2022-11-14T07:02:17.761Z,0.00
2022-11-14T07:03:13.786Z,0.00
2022-11-14T07:04:14.272Z,0.00
2022-11-14T07:05:13.624Z,0.00
2022-11-14T07:06:13.639Z,0.00
2022-11-14T07:07:13.667Z,0.00
2022-11-14T07:08:17.254Z,0.00
2022-11-14T07:09:13.830Z,0.00
2022-11-14T07:10:13.875Z,0.00
2022-11-14T07:11:13.128Z,0.00
2022-11-14T07:12:13.235Z,0.00
2022-11-14T07:13:13.310Z,0.00
2022-11-14T07:14:13.284Z,0.00
2022-11-14T07:15:13.694Z,0.00
2022-11-14T07:16:13.947Z,0.00
2022-11-14T07:17:14.232Z,0.00
2022-11-14T07:18:13.379Z,0.00
2022-11-14T07:19:13.618Z,0.00
2022-11-14T07:20:13.654Z,0.00
2022-11-14T07:21:13.576Z,0.00
2022-11-14T07:22:13.671Z,0.00
2022-11-14T07:23:14.757Z,0.00
2022-11-14T07:24:13.944Z,0.00
2022-11-14T07:25:12.843Z,0.00
2022-11-14T07:26:13.868Z,0.00
2022-11-14T07:27:13.773Z,0.00
2022-11-14T07:28:14.091Z,0.00
2022-11-14T07:29:13.016Z,0.00
2022-11-14T07:30:13.023Z,0.00
2022-11-14T07:31:13.190Z,0.00
2022-11-14T07:32:13.153Z,0.00
2022-11-14T07:33:13.128Z,0.00
2022-11-14T07:34:13.543Z,0.00
2022-11-14T07:35:13.574Z,0.00
2022-11-14T07:36:13.684Z,0.00
2022-11-14T07:37:13.744Z,0.00
2022-11-14T07:38:13.785Z,0.00
2022-11-14T07:39:13.856Z,0.00
2022-11-14T07:40:13.792Z,0.00
2022-11-14T07:41:13.922Z,0.00
2022-11-14T07:42:12.890Z,0.00
2022-11-14T07:43:14.146Z,0.00
2022-11-14T07:44:13.282Z,0.00
2022-11-14T07:45:13.142Z,0.00
2022-11-14T07:46:13.019Z,0.00
2022-11-14T07:47:12.913Z,0.00
2022-11-14T07:48:12.915Z,0.00
2022-11-14T07:49:13.175Z,0.00
2022-11-14T07:50:16.313Z,0.00
2022-11-14T07:51:13.492Z,0.00
2022-11-14T07:52:13.518Z,0.00
2022-11-14T07:53:13.774Z,0.00
2022-11-14T07:54:14.127Z,0.00
2022-11-14T07:55:13.062Z,0.00
2022-11-14T07:56:12.978Z,0.00
2022-11-14T07:57:12.937Z,0.00
2022-11-14T07:58:12.857Z,0.00
2022-11-14T07:59:13.922Z,0.00
2022-11-14T08:00:12.774Z,0.00
2022-11-14T08:01:13.944Z,0.00
2022-11-14T08:02:12.924Z,0.00
2022-11-14T08:03:12.927Z,0.00
2022-11-14T08:04:13.077Z,0.00
2022-11-14T08:05:12.960Z,0.00
2022-11-14T08:06:12.896Z,0.00
2022-11-14T08:07:13.753Z,0.00
2022-11-14T08:08:13.671Z,0.00
2022-11-14T08:09:14.076Z,0.04
2022-11-14T08:10:13.107Z,0.00
2022-11-14T08:11:15.077Z,0.00
2022-11-14T08:12:13.137Z,0.00
2022-11-14T08:13:31.762Z,0.00
2022-11-14T08:14:13.629Z,0.00
2022-11-14T08:15:13.808Z,0.00
2022-11-14T08:16:14.243Z,0.00
2022-11-14T08:17:13.408Z,0.00
2022-11-14T08:18:13.248Z,0.00
2022-11-14T08:19:13.058Z,0.00
2022-11-14T08:20:13.232Z,0.00
2022-11-14T08:21:13.300Z,0.00
2022-11-14T08:22:13.122Z,0.00
2022-11-14T08:23:13.484Z,0.00
2022-11-14T08:24:13.398Z,0.00
2022-11-14T08:25:13.463Z,0.00
2022-11-14T08:26:13.409Z,0.00
2022-11-14T08:27:13.343Z,0.00
2022-11-14T08:28:13.197Z,0.00
2022-11-14T08:29:13.422Z,0.00
2022-11-14T08:30:13.523Z,0.00
2022-11-14T08:31:13.662Z,0.00
2022-11-14T08:32:13.894Z,0.00
2022-11-14T08:33:13.044Z,0.00
2022-11-14T08:34:13.218Z,0.00
2022-11-14T08:35:13.058Z,0.00
2022-11-14T08:36:13.152Z,0.00
2022-11-14T08:37:13.153Z,0.00
2022-11-14T08:38:14.918Z,0.00
2022-11-14T08:39:13.333Z,0.00
2022-11-14T08:40:13.170Z,0.00
2022-11-14T08:41:13.236Z,0.00
2022-11-14T08:42:13.463Z,0.00
2022-11-14T08:43:13.607Z,0.00
2022-11-14T08:44:13.864Z,0.00
2022-11-14T08:45:13.746Z,0.00
2022-11-14T08:46:13.671Z,0.88
2022-11-14T08:47:13.517Z,2.44
2022-11-14T08:48:13.610Z,0.96
2022-11-14T08:49:13.556Z,0.00
2022-11-14T08:50:13.483Z,0.00
2022-11-14T08:51:13.431Z,0.16
2022-11-14T08:52:16.718Z,0.68
2022-11-14T08:53:13.231Z,0.00
2022-11-14T08:54:13.373Z,0.00
2022-11-14T08:55:13.428Z,0.00
2022-11-14T08:56:13.691Z,0.00
2022-11-14T08:57:13.596Z,0.00
2022-11-14T08:58:13.993Z,0.00
2022-11-14T08:59:12.907Z,0.00
2022-11-14T09:00:12.808Z,0.68
2022-11-14T09:01:14.115Z,0.48
2022-11-14T09:02:13.352Z,0.08
2022-11-14T09:03:13.348Z,0.24
2022-11-14T09:04:13.705Z,1.00
2022-11-14T09:05:13.690Z,0.32
2022-11-14T09:06:14.620Z,1.60
2022-11-14T09:07:13.632Z,5.24
2022-11-14T09:08:14.144Z,0.24
2022-11-14T09:09:13.022Z,0.00
2022-11-14T09:10:12.985Z,1.80
2022-11-14T09:11:15.483Z,0.12
2022-11-14T09:12:13.223Z,1.36
2022-11-14T09:13:13.092Z,0.96
2022-11-14T09:14:13.059Z,0.00
2022-11-14T09:15:13.265Z,0.00
2022-11-14T09:16:13.136Z,0.00
2022-11-14T09:17:13.115Z,0.56
2022-11-14T09:18:13.003Z,1.84
2022-11-14T09:19:14.275Z,0.62
2022-11-14T09:20:13.195Z,1.47
2022-11-14T09:21:13.783Z,0.88
2022-11-14T09:22:13.751Z,0.24
2022-11-14T09:23:13.690Z,0.12
2022-11-14T09:24:13.701Z,0.40
2022-11-14T09:25:13.683Z,0.00
2022-11-14T09:26:14.163Z,0.00
2022-11-14T09:27:13.620Z,1.80
2022-11-14T09:28:13.401Z,1.40
2022-11-14T09:29:13.434Z,0.00
2022-11-14T09:30:13.429Z,0.00
2022-11-14T09:31:13.419Z,0.00
2022-11-14T09:32:13.217Z,0.88
2022-11-14T09:33:13.309Z,0.12
2022-11-14T09:34:13.442Z,0.08
2022-11-14T09:35:13.320Z,2.68
2022-11-14T09:36:13.308Z,1.44
2022-11-14T09:37:13.681Z,0.72
2022-11-14T09:38:13.972Z,4.80
2022-11-14T09:39:13.020Z,1.76
2022-11-14T09:40:12.923Z,1.40
2022-11-14T09:41:12.812Z,0.96
2022-11-14T09:42:17.152Z,1.36
2022-11-14T09:43:13.413Z,0.04
2022-11-14T09:44:19.155Z,0.56
2022-11-14T09:45:13.396Z,0.36
2022-11-14T09:46:13.357Z,0.72
2022-11-14T09:47:17.996Z,0.72
2022-11-14T09:48:13.651Z,4.52
2022-11-14T09:49:13.605Z,4.04
2022-11-14T09:50:13.480Z,3.44
2022-11-14T09:51:13.489Z,1.24
2022-11-14T09:52:13.571Z,2.28
2022-11-14T09:53:13.448Z,0.44
2022-11-14T09:54:13.393Z,3.80
2022-11-14T09:55:13.322Z,3.72
2022-11-14T09:56:13.167Z,1.88
2022-11-14T09:57:13.049Z,3.48
2022-11-14T09:58:12.991Z,4.64
2022-11-14T09:59:12.921Z,0.40
2022-11-14T10:00:12.752Z,1.48
2022-11-14T10:01:13.583Z,0.80
2022-11-14T10:02:13.547Z,0.08
2022-11-14T10:03:13.450Z,0.00
2022-11-14T10:04:13.269Z,1.36
2022-11-14T10:05:13.357Z,3.48
2022-11-14T10:06:13.174Z,4.92
2022-11-14T10:07:13.078Z,7.72
2022-11-14T10:08:13.227Z,10.88
2022-11-14T10:09:13.351Z,8.88
2022-11-14T10:10:13.374Z,9.36
2022-11-14T10:11:13.310Z,17.32
2022-11-14T10:12:13.483Z,7.24
2022-11-14T10:13:13.489Z,12.96
2022-11-14T10:14:13.742Z,4.84
2022-11-14T10:15:13.679Z,12.52
2022-11-14T10:16:13.494Z,9.92
2022-11-14T10:17:13.278Z,8.48
2022-11-14T10:18:14.577Z,7.20
2022-11-14T10:19:13.428Z,13.64
2022-11-14T10:20:13.652Z,3.96
2022-11-14T10:21:13.649Z,3.44
2022-11-14T10:22:13.534Z,3.76
2022-11-14T10:23:13.795Z,6.20
2022-11-14T10:24:13.879Z,8.92
2022-11-14T10:25:13.849Z,2.88
2022-11-14T10:26:13.723Z,3.08
2022-11-14T10:27:13.633Z,1.28
2022-11-14T10:28:13.739Z,3.20
2022-11-14T10:29:13.626Z,4.92
2022-11-14T10:30:13.604Z,4.80
2022-11-14T10:31:13.913Z,2.24
2022-11-14T10:32:12.791Z,2.64
2022-11-14T10:33:13.968Z,2.24
2022-11-14T10:34:13.809Z,3.08
2022-11-14T10:35:13.786Z,5.72
2022-11-14T10:36:13.605Z,1.24
2022-11-14T10:37:13.419Z,4.04
2022-11-14T10:38:14.032Z,4.03
2022-11-14T10:39:12.953Z,2.64
2022-11-14T10:40:12.927Z,5.92
2022-11-14T10:41:28.490Z,4.72
2022-11-14T10:42:13.227Z,0.96
2022-11-14T10:43:13.103Z,3.00
2022-11-14T10:44:13.138Z,4.44
2022-11-14T10:45:13.141Z,7.24
2022-11-14T10:46:13.205Z,1.36
2022-11-14T10:47:13.059Z,5.20
2022-11-14T10:48:12.964Z,7.44
2022-11-14T10:49:12.835Z,2.37
2022-11-14T10:50:34.424Z,0.00
2022-11-14T10:51:13.495Z,3.84
2022-11-14T10:52:13.459Z,1.16
2022-11-14T10:54:29.123Z,4.16
2022-11-14T10:55:13.362Z,1.20
2022-11-14T10:56:13.398Z,3.76
2022-11-14T10:57:13.724Z,2.40
2022-11-14T10:58:13.679Z,2.84
2022-11-14T10:59:13.795Z,0.72
2022-11-14T11:00:13.702Z,2.12
2022-11-14T11:01:13.833Z,0.40
2022-11-14T11:02:14.080Z,0.24
2022-11-14T11:03:13.062Z,4.08
2022-11-14T11:04:13.028Z,2.68
2022-11-14T11:05:13.292Z,0.72
2022-11-14T11:06:13.253Z,2.12
2022-11-14T11:07:13.213Z,0.28
2022-11-14T11:08:41.340Z,0.12
2022-11-14T11:09:13.457Z,0.00
2022-11-14T11:10:13.569Z,0.00
2022-11-14T11:11:13.720Z,0.80
2022-11-14T11:12:13.780Z,0.60
2022-11-14T11:13:13.765Z,0.20
2022-11-14T11:14:13.988Z,1.80
2022-11-14T11:15:13.999Z,0.68
2022-11-14T11:16:12.865Z,3.64
2022-11-14T11:17:13.720Z,4.80
2022-11-14T11:18:13.785Z,5.64
2022-11-14T11:19:14.022Z,1.00
2022-11-14T11:20:12.902Z,0.04
2022-11-14T11:21:12.855Z,2.44
2022-11-14T11:22:13.154Z,4.72
2022-11-14T11:23:13.090Z,0.56
2022-11-14T11:24:13.309Z,1.44
2022-11-14T11:25:13.241Z,0.96
2022-11-14T11:26:13.474Z,1.68
2022-11-14T11:27:13.427Z,1.52
2022-11-14T11:28:13.334Z,2.08
2022-11-14T11:29:13.424Z,1.00
2022-11-14T11:30:13.258Z,0.04
2022-11-14T11:31:13.326Z,0.00
2022-11-14T11:32:13.357Z,0.00
2022-11-14T11:33:13.538Z,0.44
2022-11-14T11:34:13.525Z,3.24
2022-11-14T11:35:13.393Z,4.52
2022-11-14T11:36:13.245Z,1.16
2022-11-14T11:37:13.219Z,1.04
2022-11-14T11:38:15.895Z,0.20
2022-11-14T11:39:13.109Z,4.88
2022-11-14T11:40:13.139Z,1.88
2022-11-14T11:41:25.999Z,0.28
2022-11-14T11:42:13.763Z,1.80
2022-11-14T11:43:39.284Z,0.36
2022-11-14T11:44:13.333Z,0.28
2022-11-14T11:45:13.197Z,0.00
2022-11-14T11:46:13.308Z,0.00
2022-11-14T11:47:13.427Z,2.84
2022-11-14T11:48:13.593Z,0.64
2022-11-14T11:49:14.019Z,6.56
2022-11-14T11:50:12.800Z,7.72
2022-11-14T11:51:15.230Z,8.00
2022-11-14T11:52:13.183Z,2.96
2022-11-14T11:53:13.362Z,6.60
2022-11-14T11:54:13.484Z,5.08
2022-11-14T11:55:13.783Z,3.72
2022-11-14T11:56:13.754Z,6.32
2022-11-14T11:57:18.533Z,1.16
2022-11-14T11:58:13.519Z,3.92
2022-11-14T11:59:13.509Z,6.44
2022-11-14T12:00:13.419Z,1.48
2022-11-14T12:01:13.602Z,10.00
2022-11-14T12:02:13.945Z,22.52
2022-11-14T12:03:13.178Z,8.28
2022-11-14T12:04:13.509Z,7.28
2022-11-14T12:05:13.385Z,5.00
2022-11-14T12:06:13.269Z,7.92
2022-11-14T12:07:14.933Z,9.16
2022-11-14T12:08:17.170Z,2.08
2022-11-14T12:09:13.348Z,5.92
2022-11-14T12:10:13.380Z,7.88
2022-11-14T12:11:13.594Z,14.28
2022-11-14T12:12:13.577Z,16.12
2022-11-14T12:13:13.528Z,20.68
2022-11-14T12:14:13.535Z,13.40
2022-11-14T12:15:13.433Z,15.68
2022-11-14T12:16:13.558Z,3.56
2022-11-14T12:17:13.432Z,6.08
2022-11-14T12:18:13.628Z,12.60
2022-11-14T12:19:13.513Z,3.88
2022-11-14T12:20:13.617Z,4.24
2022-11-14T12:21:13.888Z,6.80
2022-11-14T12:22:14.083Z,5.88
2022-11-14T12:23:13.422Z,11.68
2022-11-14T12:24:13.440Z,3.80
2022-11-14T12:25:13.444Z,2.20
2022-11-14T12:26:13.289Z,10.68
2022-11-14T12:27:13.744Z,9.40
2022-11-14T12:28:13.911Z,5.00
2022-11-14T12:29:12.785Z,3.76
2022-11-14T12:30:13.921Z,7.04
2022-11-14T12:31:13.333Z,16.48
2022-11-14T12:32:13.203Z,8.92
2022-11-14T12:33:13.095Z,13.44
2022-11-14T12:34:12.981Z,8.88
2022-11-14T12:35:13.010Z,11.96
2022-11-14T12:36:13.040Z,2.72
2022-11-14T12:37:13.045Z,9.40
2022-11-14T12:38:13.062Z,4.68
2022-11-14T12:39:12.905Z,1.68
2022-11-14T12:40:12.931Z,0.28
2022-11-14T12:41:12.964Z,1.84
2022-11-14T12:42:12.793Z,0.16
2022-11-14T12:43:13.688Z,4.80
2022-11-14T12:44:13.593Z,5.40
2022-11-14T12:45:13.565Z,6.00
2022-11-14T12:46:13.760Z,3.29
2022-11-14T12:47:13.600Z,3.36
2022-11-14T12:48:13.572Z,0.00
2022-11-14T12:49:13.738Z,0.00
2022-11-14T12:50:14.037Z,0.00
2022-11-14T12:51:13.171Z,0.40
2022-11-14T12:52:13.112Z,0.00
2022-11-14T12:53:13.037Z,0.84
2022-11-14T12:54:13.050Z,0.00
2022-11-14T12:55:12.989Z,0.27
2022-11-14T12:56:12.858Z,0.00
2022-11-14T12:57:13.876Z,0.00
2022-11-14T12:58:13.742Z,0.60
2022-11-14T12:59:13.649Z,0.00
2022-11-14T13:00:13.772Z,1.96
2022-11-14T13:01:13.962Z,0.28
2022-11-14T13:02:16.807Z,0.00
2022-11-14T13:03:13.416Z,0.52
2022-11-14T13:04:13.299Z,0.12
2022-11-14T13:05:13.257Z,2.24
2022-11-14T13:06:13.368Z,3.84
2022-11-14T13:07:13.851Z,3.76
2022-11-14T13:08:12.869Z,1.24
2022-11-14T13:09:13.796Z,5.60
2022-11-14T13:10:13.786Z,3.44
2022-11-14T13:11:13.793Z,0.12
2022-11-14T13:12:14.022Z,0.20
2022-11-14T13:13:12.939Z,2.16
2022-11-14T13:14:13.011Z,0.24
2022-11-14T13:15:13.102Z,0.00
2022-11-14T13:16:13.001Z,0.00
2022-11-14T13:17:12.912Z,0.40
2022-11-14T13:18:12.816Z,3.80